sensor_id;sensor_type;location;lat;lon;timestamp;P1;durP1;ratioP1;P2;durP2;ratioP2
65393;SDS011;52002;49.760;6.512;2023-07-13T00:00:27;2.30;;;1.30;;
65393;SDS011;52002;49.760;6.512;2023-07-13T00:02:52;3.40;;;1.10;;
65393;SDS011;52002;49.760;6.512;2023-07-13T00:05:19;5.00;;;0.90;;
65393;SDS011;52002;49.760;6.512;2023-07-13T00:07:48;5.20;;;1.50;;
65393;SDS011;52002;49.760;6.512;2023-07-13T00:10:14;5.50;;;1.40;;
65393;SDS011;52002;49.760;6.512;2023-07-13T00:12:40;2.90;;;1.30;;
65393;SDS011;52002;49.760;6.512;2023-07-13T00:15:07;1.40;;;0.90;;
65393;SDS011;52002;49.760;6.512;2023-07-13T00:17:39;4.10;;;1.20;;
65393;SDS011;52002;49.760;6.512;2023-07-13T00:20:05;2.80;;;1.10;;
65393;SDS011;52002;49.760;6.512;2023-07-13T00:22:32;2.00;;;1.00;;
65393;SDS011;52002;49.760;6.512;2023-07-13T00:24:57;2.60;;;1.10;;
65393;SDS011;52002;49.760;6.512;2023-07-13T00:27:23;2.10;;;1.10;;
65393;SDS011;52002;49.760;6.512;2023-07-13T00:29:51;2.50;;;1.20;;
65393;SDS011;52002;49.760;6.512;2023-07-13T00:32:17;1.20;;;1.00;;
65393;SDS011;52002;49.760;6.512;2023-07-13T00:34:43;3.40;;;1.20;;
65393;SDS011;52002;49.760;6.512;2023-07-13T00:37:08;5.40;;;1.10;;
65393;SDS011;52002;49.760;6.512;2023-07-13T00:39:34;3.90;;;1.00;;
65393;SDS011;52002;49.760;6.512;2023-07-13T00:42:00;8.10;;;1.20;;
65393;SDS011;52002;49.760;6.512;2023-07-13T00:44:26;1.10;;;0.90;;
65393;SDS011;52002;49.760;6.512;2023-07-13T00:46:52;2.40;;;1.20;;
65393;SDS011;52002;49.760;6.512;2023-07-13T00:49:21;6.70;;;1.20;;
65393;SDS011;52002;49.760;6.512;2023-07-13T00:51:50;1.50;;;1.00;;
65393;SDS011;52002;49.760;6.512;2023-07-13T00:54:20;2.10;;;1.10;;
65393;SDS011;52002;49.760;6.512;2023-07-13T00:56:54;1.20;;;0.90;;
65393;SDS011;52002;49.760;6.512;2023-07-13T01:01:50;3.10;;;1.10;;
65393;SDS011;52002;49.760;6.512;2023-07-13T01:04:16;2.10;;;1.10;;
65393;SDS011;52002;49.760;6.512;2023-07-13T01:06:42;3.00;;;1.30;;
65393;SDS011;52002;49.760;6.512;2023-07-13T01:09:09;2.00;;;1.20;;
65393;SDS011;52002;49.760;6.512;2023-07-13T01:11:36;2.90;;;1.20;;
65393;SDS011;52002;49.760;6.512;2023-07-13T01:14:02;2.30;;;1.10;;
65393;SDS011;52002;49.760;6.512;2023-07-13T01:16:29;4.40;;;1.80;;
65393;SDS011;52002;49.760;6.512;2023-07-13T01:18:57;4.80;;;1.70;;
65393;SDS011;52002;49.760;6.512;2023-07-13T01:21:23;4.90;;;1.10;;
65393;SDS011;52002;49.760;6.512;2023-07-13T01:23:49;2.30;;;1.10;;
65393;SDS011;52002;49.760;6.512;2023-07-13T01:26:15;2.20;;;1.20;;
65393;SDS011;52002;49.760;6.512;2023-07-13T01:28:41;1.10;;;1.00;;
65393;SDS011;52002;49.760;6.512;2023-07-13T01:31:06;3.80;;;1.30;;
65393;SDS011;52002;49.760;6.512;2023-07-13T01:33:33;3.50;;;1.10;;
65393;SDS011;52002;49.760;6.512;2023-07-13T01:38:50;2.30;;;1.20;;
65393;SDS011;52002;49.760;6.512;2023-07-13T01:41:16;5.70;;;1.10;;
65393;SDS011;52002;49.760;6.512;2023-07-13T01:43:41;2.40;;;1.30;;
65393;SDS011;52002;49.760;6.512;2023-07-13T01:46:06;1.60;;;1.10;;
65393;SDS011;52002;49.760;6.512;2023-07-13T01:48:32;9.70;;;1.70;;
65393;SDS011;52002;49.760;6.512;2023-07-13T01:50:57;2.30;;;0.90;;
65393;SDS011;52002;49.760;6.512;2023-07-13T01:53:22;3.90;;;1.30;;
65393;SDS011;52002;49.760;6.512;2023-07-13T01:55:48;4.50;;;1.00;;
65393;SDS011;52002;49.760;6.512;2023-07-13T01:58:13;2.40;;;1.00;;
65393;SDS011;52002;49.760;6.512;2023-07-13T02:00:39;2.10;;;1.00;;
65393;SDS011;52002;49.760;6.512;2023-07-13T02:05:39;1.60;;;1.20;;
65393;SDS011;52002;49.760;6.512;2023-07-13T02:08:04;2.80;;;1.20;;
65393;SDS011;52002;49.760;6.512;2023-07-13T02:10:30;2.80;;;1.40;;
65393;SDS011;52002;49.760;6.512;2023-07-13T02:12:55;1.50;;;1.20;;
65393;SDS011;52002;49.760;6.512;2023-07-13T02:15:20;1.50;;;1.10;;
65393;SDS011;52002;49.760;6.512;2023-07-13T02:17:46;3.80;;;1.50;;
65393;SDS011;52002;49.760;6.512;2023-07-13T02:20:11;2.50;;;1.20;;
65393;SDS011;52002;49.760;6.512;2023-07-13T02:22:37;2.10;;;0.90;;
65393;SDS011;52002;49.760;6.512;2023-07-13T02:25:02;2.50;;;1.10;;
65393;SDS011;52002;49.760;6.512;2023-07-13T02:27:28;1.40;;;1.10;;
65393;SDS011;52002;49.760;6.512;2023-07-13T02:29:53;2.80;;;1.10;;
65393;SDS011;52002;49.760;6.512;2023-07-13T02:32:19;4.00;;;1.10;;
65393;SDS011;52002;49.760;6.512;2023-07-13T02:34:44;1.70;;;1.20;;
65393;SDS011;52002;49.760;6.512;2023-07-13T02:37:10;4.70;;;1.50;;
65393;SDS011;52002;49.760;6.512;2023-07-13T02:39:35;2.30;;;1.30;;
65393;SDS011;52002;49.760;6.512;2023-07-13T02:42:01;5.70;;;1.40;;
65393;SDS011;52002;49.760;6.512;2023-07-13T02:44:26;1.90;;;1.00;;
65393;SDS011;52002;49.760;6.512;2023-07-13T02:46:52;2.30;;;1.10;;
65393;SDS011;52002;49.760;6.512;2023-07-13T02:49:18;4.50;;;1.30;;
65393;SDS011;52002;49.760;6.512;2023-07-13T02:51:43;4.10;;;1.40;;
65393;SDS011;52002;49.760;6.512;2023-07-13T02:54:08;5.10;;;1.50;;
65393;SDS011;52002;49.760;6.512;2023-07-13T02:56:34;2.60;;;1.50;;
65393;SDS011;52002;49.760;6.512;2023-07-13T02:58:59;4.00;;;1.10;;
65393;SDS011;52002;49.760;6.512;2023-07-13T03:01:25;2.70;;;1.20;;
65393;SDS011;52002;49.760;6.512;2023-07-13T03:03:50;2.40;;;1.30;;
65393;SDS011;52002;49.760;6.512;2023-07-13T03:06:17;4.20;;;1.30;;
65393;SDS011;52002;49.760;6.512;2023-07-13T03:08:43;11.30;;;1.20;;
65393;SDS011;52002;49.760;6.512;2023-07-13T03:11:11;2.80;;;1.20;;
65393;SDS011;52002;49.760;6.512;2023-07-13T03:13:39;2.20;;;1.40;;
65393;SDS011;52002;49.760;6.512;2023-07-13T03:16:05;3.40;;;1.30;;
65393;SDS011;52002;49.760;6.512;2023-07-13T03:18:32;2.60;;;1.10;;
65393;SDS011;52002;49.760;6.512;2023-07-13T03:20:57;2.80;;;1.50;;
65393;SDS011;52002;49.760;6.512;2023-07-13T03:23:23;1.10;;;1.00;;
65393;SDS011;52002;49.760;6.512;2023-07-13T03:25:50;3.10;;;1.10;;
65393;SDS011;52002;49.760;6.512;2023-07-13T03:28:15;2.50;;;1.10;;
65393;SDS011;52002;49.760;6.512;2023-07-13T03:30:41;3.30;;;1.20;;
65393;SDS011;52002;49.760;6.512;2023-07-13T03:33:07;3.00;;;1.40;;
65393;SDS011;52002;49.760;6.512;2023-07-13T03:35:33;1.60;;;1.20;;
65393;SDS011;52002;49.760;6.512;2023-07-13T03:38:00;2.90;;;1.20;;
65393;SDS011;52002;49.760;6.512;2023-07-13T03:40:26;1.50;;;1.20;;
65393;SDS011;52002;49.760;6.512;2023-07-13T03:42:52;2.30;;;1.30;;
65393;SDS011;52002;49.760;6.512;2023-07-13T03:45:18;1.50;;;1.10;;
65393;SDS011;52002;49.760;6.512;2023-07-13T03:47:44;8.70;;;1.70;;
65393;SDS011;52002;49.760;6.512;2023-07-13T03:50:10;7.00;;;1.40;;
65393;SDS011;52002;49.760;6.512;2023-07-13T03:52:35;4.70;;;1.60;;
65393;SDS011;52002;49.760;6.512;2023-07-13T03:55:01;2.00;;;1.20;;
65393;SDS011;52002;49.760;6.512;2023-07-13T03:57:26;4.80;;;1.60;;
65393;SDS011;52002;49.760;6.512;2023-07-13T03:59:52;2.20;;;1.20;;
65393;SDS011;52002;49.760;6.512;2023-07-13T04:02:17;1.70;;;1.20;;
65393;SDS011;52002;49.760;6.512;2023-07-13T04:04:43;2.50;;;1.30;;
65393;SDS011;52002;49.760;6.512;2023-07-13T04:07:08;1.30;;;1.20;;
65393;SDS011;52002;49.760;6.512;2023-07-13T04:09:34;5.00;;;1.40;;
65393;SDS011;52002;49.760;6.512;2023-07-13T04:12:00;4.90;;;1.30;;
65393;SDS011;52002;49.760;6.512;2023-07-13T04:14:26;1.60;;;1.20;;
65393;SDS011;52002;49.760;6.512;2023-07-13T04:16:51;3.30;;;1.40;;
65393;SDS011;52002;49.760;6.512;2023-07-13T04:19:17;1.80;;;1.40;;
65393;SDS011;52002;49.760;6.512;2023-07-13T04:21:42;5.60;;;1.60;;
65393;SDS011;52002;49.760;6.512;2023-07-13T04:24:08;5.60;;;1.40;;
65393;SDS011;52002;49.760;6.512;2023-07-13T04:26:33;1.20;;;1.10;;
65393;SDS011;52002;49.760;6.512;2023-07-13T04:29:00;6.80;;;1.40;;
65393;SDS011;52002;49.760;6.512;2023-07-13T04:31:29;1.60;;;1.40;;
65393;SDS011;52002;49.760;6.512;2023-07-13T04:33:54;1.70;;;1.30;;
65393;SDS011;52002;49.760;6.512;2023-07-13T04:36:20;2.40;;;1.40;;
65393;SDS011;52002;49.760;6.512;2023-07-13T04:38:45;3.50;;;1.20;;
65393;SDS011;52002;49.760;6.512;2023-07-13T04:41:10;1.80;;;1.30;;
65393;SDS011;52002;49.760;6.512;2023-07-13T04:43:37;1.50;;;1.10;;
65393;SDS011;52002;49.760;6.512;2023-07-13T04:46:03;1.70;;;1.10;;
65393;SDS011;52002;49.760;6.512;2023-07-13T04:48:31;1.80;;;1.10;;
65393;SDS011;52002;49.760;6.512;2023-07-13T04:50:57;2.60;;;1.30;;
65393;SDS011;52002;49.760;6.512;2023-07-13T04:53:23;4.40;;;1.50;;
65393;SDS011;52002;49.760;6.512;2023-07-13T04:55:49;5.70;;;1.30;;
65393;SDS011;52002;49.760;6.512;2023-07-13T04:58:15;4.10;;;1.30;;
65393;SDS011;52002;49.760;6.512;2023-07-13T05:00:40;3.00;;;1.00;;
65393;SDS011;52002;49.760;6.512;2023-07-13T05:03:06;2.80;;;1.20;;
65393;SDS011;52002;49.760;6.512;2023-07-13T05:05:31;6.00;;;1.30;;
65393;SDS011;52002;49.760;6.512;2023-07-13T05:07:56;3.40;;;1.30;;
65393;SDS011;52002;49.760;6.512;2023-07-13T05:10:22;1.40;;;1.20;;
65393;SDS011;52002;49.760;6.512;2023-07-13T05:12:48;1.50;;;1.00;;
65393;SDS011;52002;49.760;6.512;2023-07-13T05:15:14;1.60;;;1.00;;
65393;SDS011;52002;49.760;6.512;2023-07-13T05:17:40;2.90;;;1.20;;
65393;SDS011;52002;49.760;6.512;2023-07-13T05:20:06;2.30;;;1.20;;
65393;SDS011;52002;49.760;6.512;2023-07-13T05:22:33;3.20;;;1.50;;
65393;SDS011;52002;49.760;6.512;2023-07-13T05:25:00;3.20;;;1.00;;
65393;SDS011;52002;49.760;6.512;2023-07-13T05:27:30;3.50;;;1.40;;
65393;SDS011;52002;49.760;6.512;2023-07-13T05:29:55;4.80;;;1.50;;
65393;SDS011;52002;49.760;6.512;2023-07-13T05:32:21;2.60;;;1.20;;
65393;SDS011;52002;49.760;6.512;2023-07-13T05:34:46;4.40;;;1.60;;
65393;SDS011;52002;49.760;6.512;2023-07-13T05:37:12;4.40;;;1.10;;
65393;SDS011;52002;49.760;6.512;2023-07-13T05:39:37;2.10;;;1.00;;
65393;SDS011;52002;49.760;6.512;2023-07-13T05:42:02;4.50;;;1.00;;
65393;SDS011;52002;49.760;6.512;2023-07-13T05:44:28;3.50;;;1.40;;
65393;SDS011;52002;49.760;6.512;2023-07-13T05:46:54;2.20;;;1.30;;
65393;SDS011;52002;49.760;6.512;2023-07-13T05:49:21;3.10;;;1.30;;
65393;SDS011;52002;49.760;6.512;2023-07-13T05:51:47;1.70;;;1.20;;
65393;SDS011;52002;49.760;6.512;2023-07-13T05:54:13;1.50;;;1.00;;
65393;SDS011;52002;49.760;6.512;2023-07-13T05:56:38;3.50;;;1.30;;
65393;SDS011;52002;49.760;6.512;2023-07-13T05:59:04;4.30;;;1.30;;
65393;SDS011;52002;49.760;6.512;2023-07-13T06:01:29;2.70;;;1.60;;
65393;SDS011;52002;49.760;6.512;2023-07-13T06:03:56;3.70;;;1.60;;
65393;SDS011;52002;49.760;6.512;2023-07-13T06:06:21;3.10;;;1.60;;
65393;SDS011;52002;49.760;6.512;2023-07-13T06:08:47;2.50;;;1.60;;
65393;SDS011;52002;49.760;6.512;2023-07-13T06:11:13;3.70;;;1.60;;
65393;SDS011;52002;49.760;6.512;2023-07-13T06:13:42;5.80;;;1.80;;
65393;SDS011;52002;49.760;6.512;2023-07-13T06:16:08;4.40;;;2.20;;
65393;SDS011;52002;49.760;6.512;2023-07-13T06:18:34;2.80;;;2.10;;
65393;SDS011;52002;49.760;6.512;2023-07-13T06:21:10;2.60;;;1.50;;
65393;SDS011;52002;49.760;6.512;2023-07-13T06:23:41;3.70;;;2.00;;
65393;SDS011;52002;49.760;6.512;2023-07-13T06:26:07;4.40;;;1.90;;
65393;SDS011;52002;49.760;6.512;2023-07-13T06:28:34;4.90;;;2.10;;
65393;SDS011;52002;49.760;6.512;2023-07-13T06:31:01;6.90;;;2.60;;
65393;SDS011;52002;49.760;6.512;2023-07-13T06:33:26;3.50;;;2.40;;
65393;SDS011;52002;49.760;6.512;2023-07-13T06:35:52;3.60;;;2.90;;
65393;SDS011;52002;49.760;6.512;2023-07-13T06:38:19;3.30;;;3.00;;
65393;SDS011;52002;49.760;6.512;2023-07-13T06:40:45;5.00;;;3.60;;
65393;SDS011;52002;49.760;6.512;2023-07-13T06:43:11;3.70;;;3.30;;
65393;SDS011;52002;49.760;6.512;2023-07-13T06:45:40;3.80;;;3.50;;
65393;SDS011;52002;49.760;6.512;2023-07-13T06:48:12;4.60;;;4.10;;
65393;SDS011;52002;49.760;6.512;2023-07-13T06:50:37;5.00;;;4.60;;
65393;SDS011;52002;49.760;6.512;2023-07-13T06:53:03;6.10;;;5.60;;
65393;SDS011;52002;49.760;6.512;2023-07-13T06:55:28;5.90;;;5.40;;
65393;SDS011;52002;49.760;6.512;2023-07-13T06:57:53;6.50;;;6.00;;
65393;SDS011;52002;49.760;6.512;2023-07-13T07:00:19;8.10;;;6.70;;
65393;SDS011;52002;49.760;6.512;2023-07-13T07:02:44;7.80;;;7.10;;
65393;SDS011;52002;49.760;6.512;2023-07-13T07:05:10;8.30;;;7.70;;
65393;SDS011;52002;49.760;6.512;2023-07-13T07:07:35;9.50;;;8.50;;
65393;SDS011;52002;49.760;6.512;2023-07-13T07:10:00;8.30;;;7.80;;
65393;SDS011;52002;49.760;6.512;2023-07-13T07:12:26;10.10;;;8.90;;
65393;SDS011;52002;49.760;6.512;2023-07-13T07:14:51;9.20;;;8.30;;
65393;SDS011;52002;49.760;6.512;2023-07-13T07:17:17;7.60;;;7.00;;
65393;SDS011;52002;49.760;6.512;2023-07-13T07:19:42;7.00;;;6.50;;
65393;SDS011;52002;49.760;6.512;2023-07-13T07:22:07;6.30;;;5.80;;
65393;SDS011;52002;49.760;6.512;2023-07-13T07:24:33;11.60;;;5.30;;
65393;SDS011;52002;49.760;6.512;2023-07-13T07:26:58;8.40;;;4.00;;
65393;SDS011;52002;49.760;6.512;2023-07-13T07:29:24;11.50;;;3.90;;
65393;SDS011;52002;49.760;6.512;2023-07-13T07:31:51;7.80;;;4.80;;
65393;SDS011;52002;49.760;6.512;2023-07-13T07:34:17;7.60;;;5.40;;
65393;SDS011;52002;49.760;6.512;2023-07-13T07:36:42;8.50;;;6.10;;
65393;SDS011;52002;49.760;6.512;2023-07-13T07:39:07;7.70;;;7.10;;
65393;SDS011;52002;49.760;6.512;2023-07-13T07:41:33;9.30;;;8.50;;
65393;SDS011;52002;49.760;6.512;2023-07-13T07:43:58;9.40;;;8.70;;
65393;SDS011;52002;49.760;6.512;2023-07-13T07:46:23;10.00;;;9.30;;
65393;SDS011;52002;49.760;6.512;2023-07-13T07:48:49;11.60;;;9.40;;
65393;SDS011;52002;49.760;6.512;2023-07-13T07:51:14;8.30;;;7.70;;
65393;SDS011;52002;49.760;6.512;2023-07-13T07:53:40;6.10;;;5.60;;
65393;SDS011;52002;49.760;6.512;2023-07-13T07:56:05;12.60;;;5.50;;
65393;SDS011;52002;49.760;6.512;2023-07-13T07:58:31;4.50;;;3.90;;
65393;SDS011;52002;49.760;6.512;2023-07-13T08:01:03;6.00;;;3.40;;
65393;SDS011;52002;49.760;6.512;2023-07-13T08:03:31;4.80;;;2.90;;
65393;SDS011;52002;49.760;6.512;2023-07-13T08:05:57;6.60;;;3.20;;
65393;SDS011;52002;49.760;6.512;2023-07-13T08:08:22;2.80;;;2.30;;
65393;SDS011;52002;49.760;6.512;2023-07-13T08:10:48;2.80;;;2.30;;
65393;SDS011;52002;49.760;6.512;2023-07-13T08:13:13;5.80;;;2.50;;
65393;SDS011;52002;49.760;6.512;2023-07-13T08:15:38;6.40;;;2.80;;
65393;SDS011;52002;49.760;6.512;2023-07-13T08:18:05;3.00;;;1.90;;
65393;SDS011;52002;49.760;6.512;2023-07-13T08:20:31;3.90;;;1.90;;
65393;SDS011;52002;49.760;6.512;2023-07-13T08:22:56;2.50;;;1.90;;
65393;SDS011;52002;49.760;6.512;2023-07-13T08:25:22;5.60;;;2.30;;
65393;SDS011;52002;49.760;6.512;2023-07-13T08:27:48;2.60;;;1.70;;
65393;SDS011;52002;49.760;6.512;2023-07-13T08:30:13;5.00;;;1.70;;
65393;SDS011;52002;49.760;6.512;2023-07-13T08:32:38;2.10;;;1.80;;
65393;SDS011;52002;49.760;6.512;2023-07-13T08:35:05;4.10;;;1.80;;
65393;SDS011;52002;49.760;6.512;2023-07-13T08:37:30;4.40;;;1.90;;
65393;SDS011;52002;49.760;6.512;2023-07-13T08:39:56;5.20;;;2.00;;
65393;SDS011;52002;49.760;6.512;2023-07-13T08:47:46;3.70;;;2.30;;
65393;SDS011;52002;49.760;6.512;2023-07-13T08:50:18;3.50;;;2.20;;
65393;SDS011;52002;49.760;6.512;2023-07-13T08:52:47;3.30;;;1.90;;
65393;SDS011;52002;49.760;6.512;2023-07-13T08:57:44;1.80;;;1.60;;
65393;SDS011;52002;49.760;6.512;2023-07-13T09:00:13;1.50;;;1.20;;
65393;SDS011;52002;49.760;6.512;2023-07-13T09:02:54;3.50;;;1.40;;
65393;SDS011;52002;49.760;6.512;2023-07-13T09:08:17;5.30;;;1.30;;
65393;SDS011;52002;49.760;6.512;2023-07-13T09:11:04;14.20;;;1.30;;
65393;SDS011;52002;49.760;6.512;2023-07-13T09:13:37;10.80;;;1.30;;
65393;SDS011;52002;49.760;6.512;2023-07-13T09:16:07;2.70;;;1.30;;
65393;SDS011;52002;49.760;6.512;2023-07-13T09:18:42;2.10;;;1.10;;
65393;SDS011;52002;49.760;6.512;2023-07-13T09:21:18;2.50;;;1.30;;
65393;SDS011;52002;49.760;6.512;2023-07-13T09:23:48;3.20;;;1.10;;
65393;SDS011;52002;49.760;6.512;2023-07-13T09:26:21;3.80;;;1.00;;
65393;SDS011;52002;49.760;6.512;2023-07-13T09:28:54;1.10;;;0.70;;
65393;SDS011;52002;49.760;6.512;2023-07-13T09:31:24;2.20;;;0.80;;
65393;SDS011;52002;49.760;6.512;2023-07-13T09:33:59;2.50;;;0.70;;
65393;SDS011;52002;49.760;6.512;2023-07-13T09:36:28;2.00;;;0.90;;
65393;SDS011;52002;49.760;6.512;2023-07-13T09:39:02;28.00;;;3.70;;
65393;SDS011;52002;49.760;6.512;2023-07-13T09:41:41;2.50;;;0.90;;
65393;SDS011;52002;49.760;6.512;2023-07-13T09:44:17;1.80;;;0.70;;
65393;SDS011;52002;49.760;6.512;2023-07-13T09:46:54;2.80;;;0.90;;
65393;SDS011;52002;49.760;6.512;2023-07-13T09:49:26;4.10;;;1.20;;
65393;SDS011;52002;49.760;6.512;2023-07-13T09:51:59;3.60;;;1.00;;
65393;SDS011;52002;49.760;6.512;2023-07-13T09:54:27;2.70;;;0.80;;
65393;SDS011;52002;49.760;6.512;2023-07-13T09:56:56;1.10;;;0.80;;
65393;SDS011;52002;49.760;6.512;2023-07-13T09:59:36;3.70;;;0.90;;
65393;SDS011;52002;49.760;6.512;2023-07-13T10:02:28;5.40;;;1.00;;
65393;SDS011;52002;49.760;6.512;2023-07-13T10:04:59;1.30;;;0.70;;
65393;SDS011;52002;49.760;6.512;2023-07-13T10:07:28;1.90;;;0.80;;
65393;SDS011;52002;49.760;6.512;2023-07-13T10:09:55;1.70;;;1.00;;
65393;SDS011;52002;49.760;6.512;2023-07-13T10:12:22;2.40;;;0.90;;
65393;SDS011;52002;49.760;6.512;2023-07-13T10:14:52;1.00;;;0.70;;
65393;SDS011;52002;49.760;6.512;2023-07-13T10:17:25;2.00;;;0.90;;
65393;SDS011;52002;49.760;6.512;2023-07-13T10:19:55;2.50;;;0.70;;
65393;SDS011;52002;49.760;6.512;2023-07-13T10:22:27;1.80;;;1.00;;
65393;SDS011;52002;49.760;6.512;2023-07-13T10:25:03;2.40;;;0.80;;
65393;SDS011;52002;49.760;6.512;2023-07-13T10:27:47;2.70;;;0.70;;
65393;SDS011;52002;49.760;6.512;2023-07-13T10:30:20;1.80;;;0.60;;
65393;SDS011;52002;49.760;6.512;2023-07-13T10:32:50;3.50;;;0.80;;
65393;SDS011;52002;49.760;6.512;2023-07-13T10:35:18;1.50;;;0.90;;
65393;SDS011;52002;49.760;6.512;2023-07-13T10:40:27;4.10;;;0.90;;
65393;SDS011;52002;49.760;6.512;2023-07-13T10:42:59;5.60;;;0.80;;
65393;SDS011;52002;49.760;6.512;2023-07-13T10:45:26;1.40;;;0.80;;
65393;SDS011;52002;49.760;6.512;2023-07-13T10:47:56;1.70;;;0.90;;
65393;SDS011;52002;49.760;6.512;2023-07-13T10:50:23;4.30;;;0.80;;
65393;SDS011;52002;49.760;6.512;2023-07-13T10:52:55;1.50;;;0.70;;
65393;SDS011;52002;49.760;6.512;2023-07-13T10:58:29;0.90;;;0.60;;
65393;SDS011;52002;49.760;6.512;2023-07-13T11:03:31;76.40;;;8.70;;
65393;SDS011;52002;49.760;6.512;2023-07-13T11:08:58;1.30;;;0.70;;
65393;SDS011;52002;49.760;6.512;2023-07-13T11:18:45;1.00;;;0.80;;
65393;SDS011;52002;49.760;6.512;2023-07-13T11:21:41;1.90;;;0.70;;
65393;SDS011;52002;49.760;6.512;2023-07-13T11:25:38;1.60;;;0.70;;
65393;SDS011;52002;49.760;6.512;2023-07-13T11:30:39;1.40;;;0.80;;
65393;SDS011;52002;49.760;6.512;2023-07-13T11:38:22;1.40;;;0.70;;
65393;SDS011;52002;49.760;6.512;2023-07-13T11:40:54;1.30;;;0.70;;
65393;SDS011;52002;49.760;6.512;2023-07-13T11:43:20;2.90;;;1.00;;
65393;SDS011;52002;49.760;6.512;2023-07-13T11:45:48;3.20;;;0.60;;
65393;SDS011;52002;49.760;6.512;2023-07-13T11:48:22;1.50;;;0.70;;
65393;SDS011;52002;49.760;6.512;2023-07-13T11:50:50;1.10;;;0.60;;
65393;SDS011;52002;49.760;6.512;2023-07-13T11:53:19;7.00;;;1.40;;
65393;SDS011;52002;49.760;6.512;2023-07-13T11:55:45;5.50;;;0.90;;
65393;SDS011;52002;49.760;6.512;2023-07-13T11:58:11;5.80;;;0.80;;
65393;SDS011;52002;49.760;6.512;2023-07-13T12:00:41;1.30;;;0.80;;
65393;SDS011;52002;49.760;6.512;2023-07-13T12:03:07;1.30;;;0.70;;
65393;SDS011;52002;49.760;6.512;2023-07-13T12:05:32;1.40;;;0.90;;
65393;SDS011;52002;49.760;6.512;2023-07-13T12:07:58;3.80;;;0.60;;
65393;SDS011;52002;49.760;6.512;2023-07-13T12:13:02;2.20;;;0.80;;
65393;SDS011;52002;49.760;6.512;2023-07-13T12:15:37;4.30;;;0.80;;
65393;SDS011;52002;49.760;6.512;2023-07-13T12:18:14;2.80;;;0.80;;
65393;SDS011;52002;49.760;6.512;2023-07-13T12:20:43;1.20;;;0.80;;
65393;SDS011;52002;49.760;6.512;2023-07-13T12:23:20;1.60;;;0.80;;
65393;SDS011;52002;49.760;6.512;2023-07-13T12:25:53;2.00;;;0.80;;
65393;SDS011;52002;49.760;6.512;2023-07-13T12:28:19;4.70;;;0.90;;
65393;SDS011;52002;49.760;6.512;2023-07-13T12:30:47;1.40;;;0.60;;
65393;SDS011;52002;49.760;6.512;2023-07-13T12:33:13;1.20;;;0.90;;
65393;SDS011;52002;49.760;6.512;2023-07-13T12:35:44;1.10;;;0.60;;
65393;SDS011;52002;49.760;6.512;2023-07-13T12:38:12;2.90;;;0.80;;
65393;SDS011;52002;49.760;6.512;2023-07-13T12:40:38;2.20;;;0.80;;
65393;SDS011;52002;49.760;6.512;2023-07-13T12:43:05;1.80;;;0.80;;
65393;SDS011;52002;49.760;6.512;2023-07-13T12:45:37;8.40;;;0.80;;
65393;SDS011;52002;49.760;6.512;2023-07-13T12:48:10;1.10;;;0.60;;
65393;SDS011;52002;49.760;6.512;2023-07-13T12:50:41;3.20;;;0.70;;
65393;SDS011;52002;49.760;6.512;2023-07-13T12:55:47;3.30;;;0.90;;
65393;SDS011;52002;49.760;6.512;2023-07-13T12:58:22;1.00;;;0.70;;
65393;SDS011;52002;49.760;6.512;2023-07-13T13:00:50;1.50;;;0.80;;
65393;SDS011;52002;49.760;6.512;2023-07-13T13:03:38;2.70;;;0.80;;
65393;SDS011;52002;49.760;6.512;2023-07-13T13:08:40;6.10;;;0.60;;
65393;SDS011;52002;49.760;6.512;2023-07-13T13:11:08;1.70;;;0.80;;
65393;SDS011;52002;49.760;6.512;2023-07-13T13:13:34;1.60;;;0.90;;
65393;SDS011;52002;49.760;6.512;2023-07-13T13:18:42;1.50;;;0.90;;
65393;SDS011;52002;49.760;6.512;2023-07-13T13:21:08;4.00;;;0.80;;
65393;SDS011;52002;49.760;6.512;2023-07-13T13:23:34;1.40;;;0.80;;
65393;SDS011;52002;49.760;6.512;2023-07-13T13:26:00;3.80;;;1.00;;
65393;SDS011;52002;49.760;6.512;2023-07-13T13:28:26;1.20;;;0.70;;
65393;SDS011;52002;49.760;6.512;2023-07-13T13:30:51;0.60;;;0.60;;
65393;SDS011;52002;49.760;6.512;2023-07-13T13:33:18;1.80;;;0.90;;
65393;SDS011;52002;49.760;6.512;2023-07-13T13:35:45;4.00;;;0.70;;
65393;SDS011;52002;49.760;6.512;2023-07-13T13:38:15;4.10;;;0.70;;
65393;SDS011;52002;49.760;6.512;2023-07-13T13:40:43;2.80;;;0.90;;
65393;SDS011;52002;49.760;6.512;2023-07-13T13:43:27;2.00;;;0.60;;
65393;SDS011;52002;49.760;6.512;2023-07-13T13:45:55;2.40;;;0.90;;
65393;SDS011;52002;49.760;6.512;2023-07-13T13:48:30;3.80;;;0.90;;
65393;SDS011;52002;49.760;6.512;2023-07-13T13:50:57;2.60;;;0.80;;
65393;SDS011;52002;49.760;6.512;2023-07-13T13:53:23;2.30;;;0.80;;
65393;SDS011;52002;49.760;6.512;2023-07-13T13:55:48;1.10;;;0.80;;
65393;SDS011;52002;49.760;6.512;2023-07-13T13:58:14;5.10;;;1.30;;
65393;SDS011;52002;49.760;6.512;2023-07-13T14:00:40;2.50;;;0.90;;
65393;SDS011;52002;49.760;6.512;2023-07-13T14:03:05;2.10;;;0.90;;
65393;SDS011;52002;49.760;6.512;2023-07-13T14:05:39;2.90;;;1.00;;
65393;SDS011;52002;49.760;6.512;2023-07-13T14:08:08;1.10;;;0.70;;
65393;SDS011;52002;49.760;6.512;2023-07-13T14:10:39;5.70;;;0.90;;
65393;SDS011;52002;49.760;6.512;2023-07-13T14:13:05;2.50;;;0.80;;
65393;SDS011;52002;49.760;6.512;2023-07-13T14:15:35;1.00;;;0.60;;
65393;SDS011;52002;49.760;6.512;2023-07-13T14:18:00;2.70;;;0.80;;
65393;SDS011;52002;49.760;6.512;2023-07-13T14:20:25;2.60;;;0.80;;
65393;SDS011;52002;49.760;6.512;2023-07-13T14:22:51;1.80;;;0.70;;
65393;SDS011;52002;49.760;6.512;2023-07-13T14:25:18;5.30;;;1.00;;
65393;SDS011;52002;49.760;6.512;2023-07-13T14:27:45;2.70;;;0.90;;
65393;SDS011;52002;49.760;6.512;2023-07-13T14:30:18;1.80;;;0.90;;
65393;SDS011;52002;49.760;6.512;2023-07-13T14:32:45;2.30;;;0.60;;
65393;SDS011;52002;49.760;6.512;2023-07-13T14:35:11;4.80;;;0.80;;
65393;SDS011;52002;49.760;6.512;2023-07-13T14:37:41;7.10;;;0.90;;
65393;SDS011;52002;49.760;6.512;2023-07-13T14:40:15;3.40;;;0.80;;
65393;SDS011;52002;49.760;6.512;2023-07-13T14:42:42;5.80;;;0.90;;
65393;SDS011;52002;49.760;6.512;2023-07-13T14:45:15;6.10;;;1.10;;
65393;SDS011;52002;49.760;6.512;2023-07-13T14:47:42;1.00;;;0.80;;
65393;SDS011;52002;49.760;6.512;2023-07-13T14:50:12;3.20;;;1.20;;
65393;SDS011;52002;49.760;6.512;2023-07-13T14:52:40;2.90;;;0.70;;
65393;SDS011;52002;49.760;6.512;2023-07-13T14:55:13;2.10;;;0.80;;
65393;SDS011;52002;49.760;6.512;2023-07-13T14:57:40;2.10;;;1.00;;
65393;SDS011;52002;49.760;6.512;2023-07-13T15:00:24;4.60;;;1.10;;
65393;SDS011;52002;49.760;6.512;2023-07-13T15:02:51;2.50;;;0.90;;
65393;SDS011;52002;49.760;6.512;2023-07-13T15:05:23;2.40;;;0.90;;
65393;SDS011;52002;49.760;6.512;2023-07-13T15:07:51;3.10;;;1.10;;
65393;SDS011;52002;49.760;6.512;2023-07-13T15:10:19;2.70;;;0.80;;
65393;SDS011;52002;49.760;6.512;2023-07-13T15:12:45;3.70;;;1.00;;
65393;SDS011;52002;49.760;6.512;2023-07-13T15:15:12;5.90;;;1.00;;
65393;SDS011;52002;49.760;6.512;2023-07-13T15:17:42;2.70;;;1.00;;
65393;SDS011;52002;49.760;6.512;2023-07-13T15:20:18;5.20;;;1.00;;
65393;SDS011;52002;49.760;6.512;2023-07-13T15:22:55;2.00;;;0.90;;
65393;SDS011;52002;49.760;6.512;2023-07-13T15:25:22;3.40;;;0.90;;
65393;SDS011;52002;49.760;6.512;2023-07-13T15:27:50;7.20;;;1.10;;
65393;SDS011;52002;49.760;6.512;2023-07-13T15:30:16;2.10;;;0.90;;
65393;SDS011;52002;49.760;6.512;2023-07-13T15:32:42;5.10;;;1.10;;
65393;SDS011;52002;49.760;6.512;2023-07-13T15:35:21;2.60;;;0.90;;
65393;SDS011;52002;49.760;6.512;2023-07-13T15:37:49;5.90;;;1.40;;
65393;SDS011;52002;49.760;6.512;2023-07-13T15:40:15;5.60;;;0.90;;
65393;SDS011;52002;49.760;6.512;2023-07-13T15:42:42;1.80;;;0.80;;
65393;SDS011;52002;49.760;6.512;2023-07-13T15:45:15;1.70;;;0.70;;
65393;SDS011;52002;49.760;6.512;2023-07-13T15:47:47;3.20;;;0.90;;